Time;durP1;ratioP1;P1;durP2;ratioP2;P2;SDS_P1;SDS_P2;PMS_P1;PMS_P2;Temp;Humidity;BMP_temperature;BMP_pressure;BME280_temperature;BME280_humidity;BME280_pressure;Samples;Min_cycle;Max_cycle;Signal;HPM_P1;HPM_P2
2023/04/29 00:01:34;;;;;;;5.03;3.90;;;;;;;10.91;100.00;100143.25;5010375;28;20227;-79
2023/04/29 00:04:00;;;;;;;5.17;4.60;;;;;;;10.90;100.00;100144.13;4991562;28;20220;-78
2023/04/29 00:06:27;;;;;;;5.97;4.60;;;;;;;10.93;100.00;100139.72;5010041;28;20199;-81
2023/04/29 00:08:53;;;;;;;6.10;4.60;;;;;;;10.92;100.00;100143.25;5008686;28;20245;-78
2023/04/29 00:11:20;;;;;;;5.60;4.40;;;;;;;10.93;100.00;100141.47;5010401;28;20194;-78
2023/04/29 00:13:46;;;;;;;5.43;4.03;;;;;;;10.90;100.00;100136.16;5008615;28;20237;-79
2023/04/29 00:16:12;;;;;;;4.30;3.70;;;;;;;10.92;100.00;100134.41;5010896;28;20207;-78
2023/04/29 00:18:39;;;;;;;5.27;4.07;;;;;;;10.91;100.00;100137.94;5014341;28;20218;-80
2023/04/29 00:21:05;;;;;;;4.87;4.13;;;;;;;10.89;100.00;100137.03;5016829;28;20412;-78
2023/04/29 00:23:32;;;;;;;3.90;3.50;;;;;;;10.96;100.00;100146.81;5011955;28;20281;-80
2023/04/29 00:26:01;;;;;;;4.97;3.87;;;;;;;10.99;100.00;100142.41;5011436;28;20270;-80
2023/04/29 00:28:28;;;;;;;5.23;3.97;;;;;;;11.10;100.00;100147.78;5009544;28;20238;-78
2023/04/29 00:30:54;;;;;;;6.30;3.83;;;;;;;11.17;100.00;100139.00;5005181;28;20745;-78
2023/04/29 00:33:21;;;;;;;4.83;4.20;;;;;;;11.29;100.00;100154.13;5007818;28;20618;-78
2023/04/29 00:35:48;;;;;;;4.73;3.60;;;;;;;11.35;100.00;100146.19;5008944;28;20202;-78
2023/04/29 00:38:14;;;;;;;3.80;3.40;;;;;;;11.27;100.00;100145.28;5007732;28;20218;-81
2023/04/29 00:40:42;;;;;;;3.60;3.23;;;;;;;11.27;100.00;100147.94;5009047;28;20199;-79
2023/04/29 00:43:08;;;;;;;6.23;3.70;;;;;;;11.27;100.00;100143.50;5007365;28;20232;-79
2023/04/29 00:45:35;;;;;;;5.47;3.50;;;;;;;11.20;100.00;100143.44;5008522;28;20228;-79
2023/04/29 00:48:01;;;;;;;4.10;3.70;;;;;;;11.17;100.00;100140.75;4991122;28;20297;-78
2023/04/29 00:50:28;;;;;;;3.80;3.40;;;;;;;11.22;100.00;100153.19;5008816;28;20196;-78
2023/04/29 00:52:54;;;;;;;3.83;3.30;;;;;;;11.26;100.00;100157.63;5008782;28;20248;-74
2023/04/29 00:55:23;;;;;;;5.43;3.77;;;;;;;11.30;100.00;100156.78;5009661;28;20203;-78
2023/04/29 00:57:51;;;;;;;4.13;3.43;;;;;;;11.36;100.00;100161.22;5006576;28;20224;-76
2023/04/29 01:00:18;;;;;;;5.57;3.70;;;;;;;11.46;100.00;100154.22;5007148;28;20201;-75
2023/04/29 01:02:45;;;;;;;4.10;3.37;;;;;;;11.40;100.00;100156.84;5009868;28;20220;-76
2023/04/29 01:05:11;;;;;;;3.50;3.10;;;;;;;11.31;100.00;100152.38;5005901;28;20192;-74
2023/04/29 01:07:51;;;;;;;4.13;3.50;;;;;;;11.22;100.00;100154.97;5009352;28;20244;-75
2023/04/29 01:10:31;;;;;;;4.77;3.40;;;;;;;11.24;100.00;100148.78;5006898;28;20231;-75
2023/04/29 01:13:22;;;;;;;5.53;3.50;;;;;;;11.12;100.00;100155.75;5013007;28;20227;-78
2023/04/29 01:15:58;;;;;;;4.07;3.60;;;;;;;10.99;100.00;100158.31;5013170;28;20254;-78
2023/04/29 01:18:29;;;;;;;4.73;3.43;;;;;;;10.87;100.00;100154.69;5012561;28;20299;-80
2023/04/29 01:20:57;;;;;;;6.00;3.37;;;;;;;10.79;100.00;100146.66;5008922;28;20233;-79
2023/04/29 01:23:30;;;;;;;4.23;3.60;;;;;;;10.88;100.00;100157.34;5013264;28;20311;-78
2023/04/29 01:25:57;;;;;;;5.13;3.63;;;;;;;10.81;100.00;100159.94;5006928;28;20200;-78
2023/04/29 01:28:42;;;;;;;6.30;3.73;;;;;;;10.68;100.00;100158.91;5008739;28;20250;-78
2023/04/29 01:31:37;;;;;;;4.63;3.60;;;;;;;10.81;100.00;100159.94;4994722;28;20205;-78
2023/04/29 01:34:28;;;;;;;5.67;3.80;;;;;;;10.85;100.00;100164.38;5011957;28;20201;-81
2023/04/29 01:37:30;;;;;;;4.17;3.70;;;;;;;10.75;100.00;100168.69;4989549;28;20661;-81
2023/04/29 01:40:14;;;;;;;4.97;4.00;;;;;;;10.58;100.00;100171.19;4987506;28;20196;-79
2023/04/29 01:43:03;;;;;;;7.97;4.00;;;;;;;10.51;100.00;100161.41;4990252;28;20303;-74
2023/04/29 01:45:33;;;;;;;5.43;3.90;;;;;;;10.54;100.00;100164.09;5007280;28;20717;-71
2023/04/29 01:47:59;;;;;;;5.47;4.00;;;;;;;10.61;100.00;100165.03;4994892;28;20320;-73
2023/04/29 01:50:26;;;;;;;5.57;4.20;;;;;;;10.65;100.00;100166.84;5010362;28;20208;-74
2023/04/29 01:52:52;;;;;;;4.97;3.93;;;;;;;10.64;100.00;100162.41;4987563;28;20255;-78
2023/04/29 01:55:19;;;;;;;5.70;3.77;;;;;;;10.70;100.00;100169.53;4991789;28;20203;-79
2023/04/29 01:57:45;;;;;;;4.93;4.17;;;;;;;10.74;100.00;100173.97;5006298;28;20276;-80
2023/04/29 02:00:12;;;;;;;6.33;4.07;;;;;;;10.79;100.00;100172.25;4992904;28;20281;-79
2023/04/29 02:02:38;;;;;;;4.73;3.70;;;;;;;10.89;100.00;100171.47;5010203;28;20199;-80
2023/04/29 02:05:05;;;;;;;4.97;4.20;;;;;;;10.92;100.00;100177.69;5011137;28;20253;-80
2023/04/29 02:07:31;;;;;;;9.57;4.00;;;;;;;11.06;100.00;100175.13;5009549;28;20216;-80
2023/04/29 02:09:58;;;;;;;7.43;3.90;;;;;;;11.07;100.00;100174.25;5003817;28;20231;-79
2023/04/29 02:12:24;;;;;;;4.70;3.63;;;;;;;11.01;100.00;100163.63;5007225;28;20699;-79
2023/04/29 02:14:52;;;;;;;4.20;3.77;;;;;;;10.95;100.00;100164.47;5000852;28;20207;-79
2023/04/29 02:17:18;;;;;;;6.07;4.00;;;;;;;11.03;100.00;100174.22;5005819;28;20303;-79
2023/04/29 02:19:45;;;;;;;4.47;3.63;;;;;;;11.07;100.00;100165.44;5012262;28;20213;-78
2023/04/29 02:22:11;;;;;;;5.83;3.50;;;;;;;11.04;100.00;100171.59;4998530;28;20195;-79
2023/04/29 02:24:38;;;;;;;4.20;3.43;;;;;;;11.01;100.00;100165.38;5006318;28;20302;-79
2023/04/29 02:27:05;;;;;;;5.10;3.83;;;;;;;10.98;100.00;100169.78;5010625;28;20243;-77
2023/04/29 02:29:32;;;;;;;5.90;3.90;;;;;;;10.97;100.00;100168.00;5005344;28;20701;-79
2023/04/29 02:31:58;;;;;;;4.53;3.70;;;;;;;11.11;100.00;100178.72;5012229;28;20203;-71
2023/04/29 02:34:25;;;;;;;5.77;4.77;;;;;;;11.14;100.00;100178.72;5010683;28;20660;-74
2023/04/29 02:36:51;;;;;;;6.57;3.77;;;;;;;11.15;100.00;100184.91;5010815;28;20234;-79
2023/04/29 02:39:18;;;;;;;8.43;4.20;;;;;;;11.10;100.00;100182.25;4988268;28;20208;-79
2023/04/29 02:41:45;;;;;;;5.77;4.17;;;;;;;11.05;100.00;100185.72;5006491;28;20251;-78
2023/04/29 02:44:11;;;;;;;6.63;4.13;;;;;;;11.04;100.00;100187.50;5008984;28;20230;-78
2023/04/29 02:46:39;;;;;;;5.60;3.60;;;;;;;11.11;100.00;100196.38;5004018;28;20247;-79
2023/04/29 02:49:08;;;;;;;4.73;3.90;;;;;;;11.10;100.00;100192.84;5012587;28;20203;-78
2023/04/29 02:51:34;;;;;;;6.47;3.80;;;;;;;11.13;100.00;100192.84;5002964;28;20726;-80
2023/04/29 02:54:01;;;;;;;5.60;3.70;;;;;;;11.05;100.00;100194.56;5011551;28;20201;-78
2023/04/29 02:56:28;;;;;;;6.13;3.40;;;;;;;11.09;100.00;100200.78;5005077;28;20194;-78
2023/04/29 02:58:55;;;;;;;7.50;3.83;;;;;;;11.15;100.00;100206.13;5011814;28;20275;-77
2023/04/29 03:01:23;;;;;;;4.73;4.00;;;;;;;11.13;100.00;100199.94;5004853;28;20201;-77
2023/04/29 03:03:49;;;;;;;6.50;3.80;;;;;;;11.16;100.00;100205.25;4992905;28;20610;-80
2023/04/29 03:06:16;;;;;;;5.87;3.93;;;;;;;11.21;100.00;100198.25;5007053;28;20212;-79
2023/04/29 03:08:42;;;;;;;5.03;3.93;;;;;;;11.11;100.00;100204.31;5010577;28;20302;-79
2023/04/29 03:11:08;;;;;;;5.90;3.50;;;;;;;11.08;100.00;100199.00;5010689;28;20641;-78
2023/04/29 03:13:35;;;;;;;4.10;3.70;;;;;;;11.04;100.00;100202.50;5006600;28;20200;-79
2023/04/29 03:16:01;;;;;;;4.10;3.53;;;;;;;11.01;100.00;100195.41;5010067;28;20213;-78
2023/04/29 03:18:27;;;;;;;5.10;4.30;;;;;;;11.03;100.00;100203.38;5004922;28;20220;-79
2023/04/29 03:20:54;;;;;;;6.77;3.77;;;;;;;11.03;100.00;100201.63;5010479;28;20284;-72
2023/04/29 03:23:21;;;;;;;4.47;3.80;;;;;;;11.02;100.00;100204.25;5005826;28;20244;-71
2023/04/29 03:25:47;;;;;;;5.03;4.17;;;;;;;11.08;100.00;100212.25;5012802;28;20251;-74
2023/04/29 03:28:14;;;;;;;6.80;4.20;;;;;;;11.06;100.00;100204.28;5004191;28;20237;-72
2023/04/29 03:30:40;;;;;;;6.67;4.30;;;;;;;11.07;100.00;100214.03;4992937;28;20232;-72
2023/04/29 03:33:06;;;;;;;5.13;4.63;;;;;;;11.07;100.00;100219.31;5010061;28;20196;-69
2023/04/29 03:35:33;;;;;;;10.03;4.33;;;;;;;11.07;100.00;100210.47;5006836;28;20575;-70
2023/04/29 03:37:59;;;;;;;6.20;4.57;;;;;;;11.08;100.00;100212.25;5005100;28;20219;-70
2023/04/29 03:40:26;;;;;;;10.90;6.73;;;;;;;11.09;100.00;100209.63;5007437;28;20227;-74
2023/04/29 03:42:52;;;;;;;9.43;6.23;;;;;;;11.08;100.00;100215.78;5004549;28;20262;-72
2023/04/29 03:45:18;;;;;;;10.83;6.97;;;;;;;11.20;100.00;100215.00;5005009;28;20664;-72
2023/04/29 03:47:45;;;;;;;15.30;8.87;;;;;;;11.25;100.00;100227.44;5010551;28;20271;-73
2023/04/29 03:50:11;;;;;;;9.83;7.37;;;;;;;11.20;100.00;100215.88;5000368;28;20204;-78
2023/04/29 03:52:38;;;;;;;14.50;8.83;;;;;;;11.30;100.00;100212.44;5011966;28;20222;-70
2023/04/29 03:55:04;;;;;;;14.77;8.90;;;;;;;11.27;100.00;100219.50;4999872;28;20213;-73
2023/04/29 03:57:31;;;;;;;13.60;9.00;;;;;;;11.46;100.00;100213.44;5005068;28;20220;-71
2023/04/29 03:59:57;;;;;;;12.93;8.70;;;;;;;11.49;100.00;100218.75;5003799;28;20202;-71
2023/04/29 04:02:24;;;;;;;13.07;8.47;;;;;;;11.37;100.00;100226.63;5010501;28;20192;-70
2023/04/29 04:04:50;;;;;;;14.27;8.27;;;;;;;11.35;100.00;100228.38;4982018;28;20243;-73
2023/04/29 04:07:17;;;;;;;14.03;8.83;;;;;;;11.40;100.00;100225.78;5005678;28;20308;-73
2023/04/29 04:09:43;;;;;;;15.60;8.50;;;;;;;11.35;100.00;100238.09;5008771;28;20197;-73
2023/04/29 04:12:10;;;;;;;11.27;8.53;;;;;;;11.32;100.00;100236.31;5009552;28;20204;-72
2023/04/29 04:14:36;;;;;;;13.47;8.47;;;;;;;11.29;100.00;100237.19;5009749;28;20194;-70
2023/04/29 04:17:02;;;;;;;14.10;8.70;;;;;;;11.27;100.00;100238.06;5008578;28;20338;-70
2023/04/29 04:19:29;;;;;;;13.73;8.73;;;;;;;11.27;100.00;100244.25;5007769;28;20198;-74
2023/04/29 04:21:56;;;;;;;12.13;8.77;;;;;;;11.30;100.00;100231.00;5004150;28;20265;-71
2023/04/29 04:24:22;;;;;;;14.70;9.93;;;;;;;11.39;100.00;100243.44;5005783;28;20219;-71
2023/04/29 04:26:48;;;;;;;13.27;8.97;;;;;;;11.35;100.00;100248.72;4992232;28;20656;-71
2023/04/29 04:29:15;;;;;;;14.37;9.17;;;;;;;11.38;100.00;100251.38;5073019;22;20221;-74
2023/04/29 04:31:42;;;;;;;14.23;9.33;;;;;;;11.43;100.00;100255.84;5052871;28;20293;-77
2023/04/29 04:34:12;;;;;;;14.17;9.50;;;;;;;11.60;100.00;100262.16;5046163;28;20246;-74
2023/04/29 04:36:38;;;;;;;13.03;9.40;;;;;;;11.53;100.00;100263.00;5051423;28;20205;-76
2023/04/29 04:39:04;;;;;;;14.57;9.13;;;;;;;11.59;100.00;100254.19;5046743;28;20722;-75
2023/04/29 04:41:31;;;;;;;15.47;9.97;;;;;;;11.60;100.00;100261.25;5044402;28;20200;-75
2023/04/29 04:43:58;;;;;;;16.00;9.93;;;;;;;11.58;100.00;100269.22;5048904;28;20226;-80
2023/04/29 04:46:24;;;;;;;18.30;10.97;;;;;;;11.61;100.00;100276.34;5048464;28;20638;-82
2023/04/29 04:48:50;;;;;;;14.50;9.80;;;;;;;11.74;100.00;100282.59;5047496;28;20724;-82
2023/04/29 04:51:17;;;;;;;14.97;9.57;;;;;;;11.78;100.00;100276.47;5049054;28;20257;-82
2023/04/29 04:53:43;;;;;;;16.63;10.10;;;;;;;11.77;100.00;100285.28;5047947;28;20191;-81
2023/04/29 04:56:10;;;;;;;14.83;9.70;;;;;;;11.76;100.00;100289.69;5045412;28;20202;-78
2023/04/29 04:58:36;;;;;;;18.90;9.63;;;;;;;11.73;100.00;100296.75;5048075;28;20222;-78
2023/04/29 05:01:02;;;;;;;16.57;9.77;;;;;;;11.82;100.00;100288.88;5047804;28;20241;-82
2023/04/29 05:03:29;;;;;;;15.93;10.40;;;;;;;11.87;100.00;100296.00;5040029;28;20207;-81
2023/04/29 05:05:57;;;;;;;16.17;10.00;;;;;;;11.90;100.00;100296.00;5044146;28;20249;-75
2023/04/29 05:08:23;;;;;;;16.00;9.83;;;;;;;11.98;100.00;100289.84;5046043;28;20229;-82
2023/04/29 05:10:50;;;;;;;14.97;9.57;;;;;;;12.05;100.00;100284.63;5036444;28;20199;-78
2023/04/29 05:13:17;;;;;;;18.60;9.93;;;;;;;12.06;100.00;100298.78;5045554;28;20199;-81
2023/04/29 05:15:44;;;;;;;16.53;10.17;;;;;;;12.13;100.00;100296.16;5046200;28;20202;-75
2023/04/29 05:18:10;;;;;;;13.57;9.10;;;;;;;12.19;100.00;100305.91;5049119;28;20219;-80
2023/04/29 05:20:37;;;;;;;13.80;8.70;;;;;;;12.31;100.00;100305.09;5049011;28;20599;-73
2023/04/29 05:23:03;;;;;;;14.27;7.97;;;;;;;12.44;100.00;100305.16;5039287;28;20203;-73
2023/04/29 05:25:30;;;;;;;14.67;7.77;;;;;;;12.56;99.99;100306.97;5044454;28;20219;-73
2023/04/29 05:27:56;;;;;;;13.03;8.20;;;;;;;12.56;99.96;100304.31;5044092;28;20795;-75
2023/04/29 05:30:23;;;;;;;11.07;7.53;;;;;;;12.52;96.28;100302.53;5043779;28;20201;-75
2023/04/29 05:32:49;;;;;;;11.53;7.03;;;;;;;12.96;93.52;100307.09;5048940;28;20217;-74
2023/04/29 05:35:16;;;;;;;11.73;7.30;;;;;;;13.10;91.47;100306.25;5046757;28;20223;-77
2023/04/29 05:37:43;;;;;;;10.83;6.53;;;;;;;12.90;94.35;100317.72;5042079;28;20219;-76
2023/04/29 05:40:10;;;;;;;10.67;6.40;;;;;;;12.75;93.23;100310.56;5048261;28;20227;-74
2023/04/29 05:42:36;;;;;;;10.67;6.80;;;;;;;13.02;92.17;100312.44;5045066;28;20667;-75
2023/04/29 05:45:02;;;;;;;11.33;6.50;;;;;;;14.28;86.09;100320.41;5047761;28;20219;-73
2023/04/29 05:47:29;;;;;;;9.47;6.27;;;;;;;13.96;84.96;100331.13;5040056;28;20215;-74
2023/04/29 05:49:56;;;;;;;9.90;6.47;;;;;;;13.85;85.08;100332.91;5037420;28;21215;-72
2023/04/29 05:52:22;;;;;;;8.17;5.90;;;;;;;13.57;86.57;100337.34;5043015;28;20191;-73
2023/04/29 05:54:48;;;;;;;8.80;5.67;;;;;;;13.27;88.46;100340.91;5043967;28;20201;-73
2023/04/29 05:57:15;;;;;;;8.37;5.47;;;;;;;12.86;91.22;100336.31;5044429;28;20197;-77
2023/04/29 05:59:41;;;;;;;10.13;5.60;;;;;;;12.64;91.19;100342.44;5046313;28;20195;-78
2023/04/29 06:02:09;;;;;;;8.57;5.50;;;;;;;12.53;90.67;100346.81;5044339;28;20464;-75
2023/04/29 06:04:36;;;;;;;7.57;4.80;;;;;;;12.55;90.16;100350.38;5048251;28;20249;-74
2023/04/29 06:07:04;;;;;;;8.33;4.80;;;;;;;12.61;90.35;100353.03;5045878;28;20708;-74
2023/04/29 06:09:30;;;;;;;6.27;4.37;;;;;;;12.73;88.68;100354.84;5046764;28;20225;-76
2023/04/29 06:11:56;;;;;;;8.10;4.50;;;;;;;12.81;89.15;100366.44;5046264;28;20214;-74
2023/04/29 06:14:23;;;;;;;5.60;4.00;;;;;;;12.62;87.76;100354.81;5046116;28;20227;-71
2023/04/29 06:16:49;;;;;;;5.80;4.00;;;;;;;12.54;87.80;100359.22;5046914;28;20199;-71
2023/04/29 06:19:15;;;;;;;6.67;4.40;;;;;;;12.50;87.65;100365.41;5048741;28;20219;-70
2023/04/29 06:21:42;;;;;;;6.97;4.50;;;;;;;12.48;87.44;100384.00;5050145;28;20268;-71
2023/04/29 06:24:08;;;;;;;6.33;4.33;;;;;;;12.52;87.07;100355.66;5046879;28;20263;-73
2023/04/29 06:26:35;;;;;;;6.43;4.17;;;;;;;12.72;86.56;100385.84;5047287;28;20400;-74
2023/04/29 06:29:01;;;;;;;6.90;4.77;;;;;;;12.92;86.20;100382.41;5046962;28;20269;-75
2023/04/29 06:31:28;;;;;;;5.87;4.10;;;;;;;13.09;83.84;100392.22;5046538;28;20242;-72
2023/04/29 06:33:54;;;;;;;5.77;4.47;;;;;;;13.01;85.25;100393.97;5040219;28;20194;-74
2023/04/29 06:36:21;;;;;;;6.27;4.40;;;;;;;13.07;85.92;100404.63;5044399;28;20615;-73
2023/04/29 06:38:47;;;;;;;6.40;4.10;;;;;;;13.26;83.17;100405.59;5045607;28;20307;-73
2023/04/29 06:41:13;;;;;;;6.57;4.50;;;;;;;13.38;81.96;100408.28;5044525;28;20565;-77
2023/04/29 06:43:42;;;;;;;6.93;4.60;;;;;;;13.41;83.07;100423.38;5047528;28;20209;-75
2023/04/29 06:46:08;;;;;;;7.00;4.60;;;;;;;13.38;81.22;100432.22;5045481;28;20319;-75
2023/04/29 06:48:35;;;;;;;6.97;4.17;;;;;;;13.38;83.44;100428.69;5048915;28;20283;-77
2023/04/29 06:51:02;;;;;;;5.87;4.03;;;;;;;13.46;82.99;100432.25;5045277;28;20193;-76
2023/04/29 06:53:28;;;;;;;9.30;4.83;;;;;;;13.49;82.40;100441.13;5046040;28;20536;-79
2023/04/29 06:55:55;;;;;;;7.00;4.80;;;;;;;13.43;83.23;100437.56;5048063;28;20198;-80
2023/04/29 06:58:21;;;;;;;7.27;4.80;;;;;;;13.34;83.49;100445.53;5046664;28;20637;-79
2023/04/29 07:00:49;;;;;;;6.50;4.30;;;;;;;13.18;84.59;100447.22;5044084;28;20304;-78
2023/04/29 07:03:17;;;;;;;7.97;5.07;;;;;;;13.14;85.40;100451.59;5044879;28;20230;-81
2023/04/29 07:05:44;;;;;;;8.40;5.30;;;;;;;13.29;85.56;100456.16;5046574;28;20218;-76
2023/04/29 07:08:12;;;;;;;7.03;5.00;;;;;;;13.40;84.96;100450.84;5044832;28;20272;-79
2023/04/29 07:10:40;;;;;;;6.77;5.10;;;;;;;13.44;84.48;100452.63;5043086;28;20217;-80
2023/04/29 07:13:07;;;;;;;7.33;5.27;;;;;;;13.46;83.33;100461.50;5044170;28;20201;-80
2023/04/29 07:15:34;;;;;;;8.60;5.30;;;;;;;13.31;84.17;100465.03;5038892;28;20689;-80
2023/04/29 07:18:03;;;;;;;7.93;4.97;;;;;;;13.38;83.81;100466.81;5045895;28;20218;-82
2023/04/29 07:20:30;;;;;;;6.33;4.83;;;;;;;13.45;83.95;100460.63;5045268;28;20205;-82
2023/04/29 07:22:56;;;;;;;7.70;5.40;;;;;;;13.57;83.44;100464.19;5047757;28;20210;-80
2023/04/29 07:25:22;;;;;;;7.13;4.87;;;;;;;13.78;83.17;100470.47;5045165;28;20552;-81
2023/04/29 07:27:49;;;;;;;6.90;5.20;;;;;;;13.98;82.73;100472.25;5046686;28;20681;-82
2023/04/29 07:30:15;;;;;;;7.53;5.13;;;;;;;14.07;81.41;100473.16;5042240;28;20234;-78
2023/04/29 07:32:41;;;;;;;8.07;5.03;;;;;;;13.94;82.84;100479.34;5045818;28;20198;-80
2023/04/29 07:35:08;;;;;;;7.90;5.47;;;;;;;13.88;82.89;100479.34;5045203;28;20278;-78
2023/04/29 07:37:34;;;;;;;8.27;5.70;;;;;;;13.96;83.25;100482.00;5045393;28;20273;-78
2023/04/29 07:40:01;;;;;;;7.87;5.80;;;;;;;13.93;83.05;100480.22;5043765;28;20198;-77
2023/04/29 07:42:27;;;;;;;8.30;5.70;;;;;;;14.03;83.48;100487.38;5047137;28;20206;-76
2023/04/29 07:44:53;;;;;;;8.63;5.87;;;;;;;13.99;83.58;100490.88;5043949;28;20587;-75
2023/04/29 07:47:20;;;;;;;9.47;5.70;;;;;;;14.04;82.96;100486.47;5043921;28;20663;-74
2023/04/29 07:49:47;;;;;;;8.53;5.53;;;;;;;13.98;82.67;100493.53;5042114;28;20199;-75
2023/04/29 07:52:13;;;;;;;8.33;5.83;;;;;;;13.92;83.13;100494.44;5040835;28;20199;-74
2023/04/29 07:54:39;;;;;;;10.27;5.90;;;;;;;13.94;83.12;100505.97;5041231;28;20245;-75
2023/04/29 07:57:06;;;;;;;7.13;5.07;;;;;;;13.87;82.70;100509.50;5040900;28;20202;-75
2023/04/29 07:59:32;;;;;;;8.07;5.60;;;;;;;13.94;83.08;100510.41;5042856;28;20732;-74
2023/04/29 08:01:58;;;;;;;7.57;5.20;;;;;;;13.98;82.47;100509.53;5042462;28;20203;-75
2023/04/29 08:04:25;;;;;;;8.07;5.63;;;;;;;14.03;82.37;100510.44;5045851;28;20258;-76
2023/04/29 08:06:51;;;;;;;8.70;5.80;;;;;;;14.02;82.83;100519.31;5047397;28;20624;-77
2023/04/29 08:09:17;;;;;;;7.13;4.97;;;;;;;14.12;82.92;100515.78;5047868;28;20844;-78
2023/04/29 08:11:44;;;;;;;8.80;5.23;;;;;;;14.01;82.82;100520.22;5045156;28;20198;-79
2023/04/29 08:14:11;;;;;;;7.93;5.30;;;;;;;13.83;84.03;100537.00;5043354;28;20241;-81
2023/04/29 08:16:37;;;;;;;7.73;5.03;;;;;;;13.96;84.02;100527.28;5046295;28;20271;-84
2023/04/29 08:19:03;;;;;;;7.50;5.07;;;;;;;13.99;82.59;100538.81;5044301;28;20214;-79
2023/04/29 08:21:31;;;;;;;6.20;4.50;;;;;;;14.26;82.91;100537.09;5044495;28;20202;-77
2023/04/29 08:23:57;;;;;;;7.03;4.90;;;;;;;14.28;81.68;100529.97;5040607;28;20619;-75
2023/04/29 08:26:24;;;;;;;7.00;4.83;;;;;;;14.31;82.13;100543.31;5047970;28;20268;-73
2023/04/29 08:28:50;;;;;;;7.43;4.73;;;;;;;14.32;81.59;100545.97;5041301;28;20632;-76
2023/04/29 08:31:18;;;;;;;7.47;4.77;;;;;;;14.31;82.40;100551.28;5045967;28;20214;-76
2023/04/29 08:33:45;;;;;;;7.13;4.73;;;;;;;14.21;81.55;100549.50;5042207;28;20199;-76
2023/04/29 08:36:11;;;;;;;8.07;4.50;;;;;;;14.14;82.75;100553.94;5040220;28;20222;-74
2023/04/29 08:38:37;;;;;;;7.33;4.53;;;;;;;13.98;82.17;100552.13;5039671;28;20662;-76
2023/04/29 08:41:07;;;;;;;4.87;3.90;;;;;;;13.66;82.45;100558.28;5045547;28;20203;-75
2023/04/29 08:43:36;;;;;;;7.23;4.30;;;;;;;13.29;84.29;100565.19;5044896;28;20191;-82
2023/04/29 08:46:03;;;;;;;7.10;4.33;;;;;;;13.07;86.51;100566.81;5045763;28;20268;-81
2023/04/29 08:48:30;;;;;;;6.07;4.00;;;;;;;13.03;86.56;100567.66;5045710;28;20724;-80
2023/04/29 08:51:01;;;;;;;6.37;4.20;;;;;;;12.98;88.12;100564.09;5040504;28;20685;-75
2023/04/29 08:53:27;;;;;;;7.80;4.63;;;;;;;12.78;90.54;100579.00;5045107;28;20205;-74
2023/04/29 08:55:59;;;;;;;5.93;4.00;;;;;;;12.64;90.25;100581.56;5045483;28;20328;-74
2023/04/29 08:58:28;;;;;;;6.47;3.90;;;;;;;12.46;91.72;100579.66;5040349;28;20257;-74
2023/04/29 09:00:55;;;;;;;5.70;4.20;;;;;;;12.44;91.69;100581.41;5035724;28;20237;-74
2023/04/29 09:03:40;;;;;;;5.17;3.80;;;;;;;12.38;91.75;100583.09;5042736;28;20193;-75
2023/04/29 09:06:09;;;;;;;4.97;3.60;;;;;;;12.54;90.06;100580.59;5037225;28;20226;-74
2023/04/29 09:08:36;;;;;;;5.57;3.33;;;;;;;12.67;89.82;100586.00;5048910;28;20216;-74
2023/04/29 09:11:07;;;;;;;4.33;3.30;;;;;;;12.90;88.63;100579.09;5042784;28;20259;-75
2023/04/29 09:13:33;;;;;;;6.30;3.40;;;;;;;12.94;87.14;100578.25;5035257;28;20556;-75
2023/04/29 09:15:59;;;;;;;5.10;3.40;;;;;;;13.06;87.76;100583.63;5036644;28;20279;-75
2023/04/29 09:18:46;;;;;;;4.37;3.30;;;;;;;13.06;86.78;100580.97;5047542;28;20233;-75
2023/04/29 09:21:16;;;;;;;4.30;3.00;;;;;;;13.36;86.12;100587.41;5037737;28;20214;-75
2023/04/29 09:23:48;;;;;;;4.97;3.27;;;;;;;13.44;84.46;100580.34;5044698;28;20574;-74
2023/04/29 09:26:15;;;;;;;5.13;3.13;;;;;;;13.61;83.50;100591.97;5045027;28;20211;-75
2023/04/29 09:28:43;;;;;;;4.63;2.97;;;;;;;13.71;83.51;100600.88;5041005;28;20218;-75
2023/04/29 09:31:12;;;;;;;4.03;3.00;;;;;;;13.93;81.40;100601.81;5041849;28;20203;-83
2023/04/29 09:33:53;;;;;;;4.20;2.87;;;;;;;14.00;81.10;100600.94;5047477;28;20199;-74
2023/04/29 09:36:44;;;;;;;3.27;2.47;;;;;;;14.01;79.64;100597.44;5033363;28;20188;-74
2023/04/29 09:39:12;;;;;;;2.73;2.23;;;;;;;14.02;79.00;100602.75;5048831;28;20222;-74
2023/04/29 09:41:40;;;;;;;3.07;2.40;;;;;;;13.88;78.85;100596.47;5051184;28;20559;-76
2023/04/29 09:44:08;;;;;;;3.87;2.50;;;;;;;13.90;79.68;100607.13;5042799;28;20237;-82
2023/04/29 09:46:35;;;;;;;3.07;2.50;;;;;;;14.07;79.68;100611.66;5044956;28;20273;-82
2023/04/29 09:49:05;;;;;;;3.10;2.43;;;;;;;13.95;78.01;100605.38;5043001;28;20215;-82
2023/04/29 09:51:32;;;;;;;3.93;2.50;;;;;;;13.76;80.28;100612.41;5051937;28;20202;-82
2023/04/29 09:54:00;;;;;;;3.20;2.40;;;;;;;13.97;80.83;100615.16;5051626;28;20229;-80
2023/04/29 09:56:29;;;;;;;4.53;2.50;;;;;;;14.00;79.40;100616.94;5047978;28;20691;-82
2023/04/29 09:59:07;;;;;;;4.60;2.77;;;;;;;14.00;79.71;100617.81;5050502;28;20249;-82
2023/04/29 10:01:33;;;;;;;4.00;2.93;;;;;;;14.09;79.34;100619.63;5049110;28;20678;-82
2023/04/29 10:04:01;;;;;;;4.10;2.70;;;;;;;14.03;79.21;100619.63;5042285;28;20207;-79
2023/04/29 10:06:27;;;;;;;3.33;2.33;;;;;;;13.86;79.14;100618.66;5043868;28;20214;-77
2023/04/29 10:08:54;;;;;;;4.77;2.83;;;;;;;13.93;78.51;100624.00;5049880;28;20229;-82
2023/04/29 10:11:21;;;;;;;4.30;2.50;;;;;;;13.99;78.03;100621.34;5044326;28;20210;-79
2023/04/29 10:13:51;;;;;;;3.00;2.47;;;;;;;13.93;78.67;100625.78;5044630;28;20273;-79
2023/04/29 10:16:31;;;;;;;4.57;2.37;;;;;;;13.97;77.57;100631.13;5050022;28;20717;-77
2023/04/29 10:19:02;;;;;;;2.87;2.13;;;;;;;13.88;77.81;100630.22;5049802;28;20651;-77
2023/04/29 10:21:30;;;;;;;3.27;2.47;;;;;;;13.83;76.43;100624.88;5044669;28;20202;-75
2023/04/29 10:23:58;;;;;;;3.43;2.23;;;;;;;13.83;76.90;100626.63;5044066;28;20554;-75
2023/04/29 10:26:28;;;;;;;3.57;2.60;;;;;;;13.92;77.55;100630.22;5051512;28;20686;-74
2023/04/29 10:28:56;;;;;;;3.47;2.70;;;;;;;14.04;77.25;100627.63;5051326;28;20227;-76
2023/04/29 10:31:25;;;;;;;5.43;2.50;;;;;;;14.19;77.21;100629.44;5047118;28;20275;-76
2023/04/29 10:33:55;;;;;;;3.03;2.47;;;;;;;14.47;75.90;100624.19;5047681;28;20199;-76
2023/04/29 10:36:24;;;;;;;2.80;2.40;;;;;;;14.39;75.32;100624.13;5042020;28;20245;-77
2023/04/29 10:38:54;;;;;;;4.47;2.40;;;;;;;14.50;73.79;100630.41;5041837;28;20606;-77
2023/04/29 10:41:25;;;;;;;3.37;2.30;;;;;;;14.85;72.46;100626.88;5040860;28;20558;-76
2023/04/29 10:43:52;;;;;;;3.00;2.13;;;;;;;15.21;71.73;100629.53;5049973;28;20542;-77
2023/04/29 10:46:20;;;;;;;3.10;2.40;;;;;;;15.60;70.61;100638.31;5047876;28;20249;-76
2023/04/29 10:48:48;;;;;;;3.10;2.50;;;;;;;15.77;69.96;100631.16;5049274;28;20227;-77
2023/04/29 10:51:38;;;;;;;4.03;2.93;;;;;;;15.52;69.58;100638.31;5032082;28;20613;-77
2023/04/29 10:54:15;;;;;;;4.10;2.67;;;;;;;15.32;69.92;100637.50;5043294;28;20203;-76
2023/04/29 10:56:51;;;;;;;4.47;2.37;;;;;;;15.66;68.40;100631.22;5045816;28;20226;-76
2023/04/29 10:59:40;;;;;;;3.90;2.90;;;;;;;16.01;67.95;100630.19;5048125;28;20222;-75
2023/04/29 11:02:09;;;;;;;3.57;2.77;;;;;;;16.29;68.25;100633.56;5047014;28;20257;-76
2023/04/29 11:05:08;;;;;;;3.23;2.37;;;;;;;16.06;69.21;100625.69;5044433;28;20194;-75
2023/04/29 11:07:34;;;;;;;3.40;2.50;;;;;;;16.23;68.26;100629.16;5031387;28;20572;-76
2023/04/29 11:10:01;;;;;;;3.40;2.30;;;;;;;15.97;67.69;100628.41;5038268;28;20276;-75
2023/04/29 11:12:28;;;;;;;3.63;2.30;;;;;;;15.90;68.67;100622.19;5045361;28;20215;-75
2023/04/29 11:15:02;;;;;;;2.53;2.33;;;;;;;15.85;68.82;100628.47;5048015;28;20195;-76
2023/04/29 11:17:35;;;;;;;2.57;2.37;;;;;;;15.71;68.08;100619.63;5049912;28;20222;-74
2023/04/29 11:20:02;;;;;;;2.63;2.10;;;;;;;15.61;68.47;100625.00;5051086;28;20209;-76
2023/04/29 11:22:29;;;;;;;4.47;2.43;;;;;;;15.81;68.13;100624.03;5044366;28;20212;-75
2023/04/29 11:25:01;;;;;;;3.00;2.30;;;;;;;15.88;67.79;100629.34;5042040;28;20195;-76